Time;durP1;ratioP1;P1;durP2;ratioP2;P2;SDS_P1;SDS_P2;PMS_P1;PMS_P2;Temp;Humidity;BMP_temperature;BMP_pressure;BME280_temperature;BME280_humidity;BME280_pressure;Samples;Min_cycle;Max_cycle;Signal;HPM_P1;HPM_P2
2023/12/18 00:00:24;;;;;;;28.75;9.90;;;;;;;7.20;100.00;102947.22;4850426;29;20056;-78
2023/12/18 00:02:52;;;;;;;25.38;8.50;;;;;;;7.21;100.00;102940.25;4836721;29;20061;-79
2023/12/18 00:05:20;;;;;;;23.65;8.27;;;;;;;7.20;100.00;102935.81;4878430;29;20060;-80
2023/12/18 00:07:47;;;;;;;25.63;9.73;;;;;;;7.20;100.00;102933.19;4850699;29;20076;-79
2023/12/18 00:10:15;;;;;;;21.88;8.30;;;;;;;7.21;100.00;102932.38;4862502;29;20521;-80
2023/12/18 00:12:42;;;;;;;28.95;9.50;;;;;;;7.22;100.00;102942.03;4860101;29;20045;-78
2023/12/18 00:15:10;;;;;;;25.50;9.43;;;;;;;7.21;100.00;102932.38;4869857;29;20491;-78
2023/12/18 00:17:38;;;;;;;31.02;8.40;;;;;;;7.21;100.00;102929.75;4876052;29;20473;-79
2023/12/18 00:20:06;;;;;;;18.52;8.45;;;;;;;7.22;100.00;102926.31;4826994;29;21066;-80
2023/12/18 00:22:34;;;;;;;26.15;8.73;;;;;;;7.22;100.00;102937.72;4853587;29;20410;-79
2023/12/18 00:25:02;;;;;;;26.45;9.48;;;;;;;7.22;100.00;102929.84;4864121;29;20057;-78
2023/12/18 00:27:29;;;;;;;21.52;8.60;;;;;;;7.23;100.00;102933.34;4878097;29;20052;-79
2023/12/18 00:29:57;;;;;;;26.30;9.27;;;;;;;7.23;100.00;102941.22;4866273;29;20049;-78
2023/12/18 00:32:25;;;;;;;24.75;9.13;;;;;;;7.24;100.00;102940.41;4850198;29;20064;-80
2023/12/18 00:34:55;;;;;;;21.85;8.88;;;;;;;7.24;100.00;102937.78;4826357;29;20061;-79
2023/12/18 00:37:22;;;;;;;24.05;9.07;;;;;;;7.24;100.00;102929.94;4878599;29;20053;-78
2023/12/18 00:39:50;;;;;;;30.35;10.50;;;;;;;7.24;100.00;102935.19;4850445;29;20934;-79
2023/12/18 00:42:17;;;;;;;25.65;9.48;;;;;;;7.24;100.00;102935.19;4868446;29;20430;-78
2023/12/18 00:44:46;;;;;;;20.90;8.85;;;;;;;7.25;100.00;102926.47;4876598;29;20442;-80
2023/12/18 00:47:13;;;;;;;24.65;10.35;;;;;;;7.25;100.00;102922.94;4869801;29;20045;-79
2023/12/18 00:49:41;;;;;;;30.15;9.77;;;;;;;7.25;100.00;102920.31;4856139;29;20682;-79
2023/12/18 00:52:09;;;;;;;21.52;8.57;;;;;;;7.25;100.00;102925.56;4814466;29;20060;-79
2023/12/18 00:54:36;;;;;;;22.45;9.45;;;;;;;7.25;100.00;102928.19;4867191;29;20572;-79
2023/12/18 00:57:04;;;;;;;23.55;9.10;;;;;;;7.24;100.00;102922.06;4857957;29;20050;-79
2023/12/18 00:59:31;;;;;;;26.13;8.65;;;;;;;7.23;100.00;102926.38;4840280;29;20061;-79
2023/12/18 01:01:59;;;;;;;29.83;9.00;;;;;;;7.24;100.00;102919.44;4852248;29;20057;-79
2023/12/18 01:04:26;;;;;;;19.92;8.60;;;;;;;7.25;100.00;102921.22;4820059;29;20163;-79
2023/12/18 01:06:54;;;;;;;23.15;8.13;;;;;;;7.26;100.00;102917.78;4796088;29;20061;-78
2023/12/18 01:09:22;;;;;;;22.65;8.85;;;;;;;7.26;100.00;102911.63;4854271;29;20053;-79
2023/12/18 01:11:50;;;;;;;21.30;8.63;;;;;;;7.27;100.00;102911.69;4838376;29;20060;-78
2023/12/18 01:14:18;;;;;;;22.55;8.95;;;;;;;7.28;100.00;102904.72;4835042;29;20057;-78
2023/12/18 01:16:46;;;;;;;30.30;8.77;;;;;;;7.29;100.00;102904.81;4855331;29;20061;-79
2023/12/18 01:19:13;;;;;;;24.10;9.75;;;;;;;7.29;100.00;102907.44;4835811;29;20503;-79
2023/12/18 01:21:41;;;;;;;26.70;8.77;;;;;;;7.31;100.00;102925.88;4815532;29;20057;-79
2023/12/18 01:24:08;;;;;;;33.58;9.50;;;;;;;7.31;100.00;102920.63;4857726;29;20061;-79
2023/12/18 01:26:37;;;;;;;22.50;8.65;;;;;;;7.30;100.00;102909.25;4846877;29;20049;-81
2023/12/18 01:29:05;;;;;;;24.50;9.10;;;;;;;7.32;100.00;102904.09;4848798;29;20067;-78
2023/12/18 01:31:32;;;;;;;17.90;7.45;;;;;;;7.31;100.00;102913.66;4835355;29;20057;-79
2023/12/18 01:34:00;;;;;;;22.95;9.00;;;;;;;7.32;100.00;102897.09;4860890;29;20056;-79
2023/12/18 01:36:28;;;;;;;17.65;8.13;;;;;;;7.32;100.00;102904.97;4818917;29;20045;-78
2023/12/18 01:38:56;;;;;;;23.20;8.10;;;;;;;7.33;100.00;102911.09;4806877;29;20080;-78
2023/12/18 01:41:23;;;;;;;21.95;8.43;;;;;;;7.33;100.00;102908.47;4831318;29;21573;-79
2023/12/18 01:43:51;;;;;;;21.90;7.22;;;;;;;7.33;100.00;102900.63;4838952;29;20746;-79
2023/12/18 01:46:23;;;;;;;23.80;8.18;;;;;;;7.32;100.00;102899.72;4848056;29;20053;-80
2023/12/18 01:48:52;;;;;;;20.08;8.02;;;;;;;7.33;100.00;102898.88;4856853;29;20044;-80
2023/12/18 01:51:22;;;;;;;26.02;7.82;;;;;;;7.32;100.00;102899.72;4825377;29;20061;-78
2023/12/18 01:53:54;;;;;;;23.25;7.47;;;;;;;7.32;100.00;102907.59;4828209;29;20057;-78
2023/12/18 01:56:25;;;;;;;26.20;8.48;;;;;;;7.32;100.00;102909.31;4838989;29;20064;-78
2023/12/18 01:58:55;;;;;;;21.40;8.00;;;;;;;7.32;100.00;102897.09;4856595;29;20049;-79
2023/12/18 02:01:23;;;;;;;20.95;8.20;;;;;;;7.32;100.00;102907.59;4855710;29;20060;-79
2023/12/18 02:03:52;;;;;;;20.17;8.02;;;;;;;7.33;100.00;102911.09;4873262;29;20041;-79
2023/12/18 02:06:21;;;;;;;28.35;7.82;;;;;;;7.32;100.00;102904.97;4856100;29;20045;-78
2023/12/18 02:08:49;;;;;;;26.77;7.03;;;;;;;7.32;100.00;102915.47;4824097;29;20075;-78
2023/12/18 02:11:16;;;;;;;17.83;7.10;;;;;;;7.33;100.00;102914.63;4854294;29;20061;-78
2023/12/18 02:13:44;;;;;;;19.38;7.68;;;;;;;7.33;100.00;102905.88;4864878;29;20060;-78
2023/12/18 02:16:11;;;;;;;23.75;8.18;;;;;;;7.33;100.00;102901.50;4856883;29;20056;-79
2023/12/18 02:18:46;;;;;;;18.10;7.05;;;;;;;7.33;100.00;102896.25;4853430;29;20072;-79
2023/12/18 02:21:21;;;;;;;25.98;8.45;;;;;;;7.34;100.00;102895.47;4863826;29;20041;-79
2023/12/18 02:23:49;;;;;;;18.92;7.88;;;;;;;7.34;100.00;102887.59;4821901;29;20057;-79
2023/12/18 02:26:17;;;;;;;22.00;7.78;;;;;;;7.34;100.00;102878.81;4868621;29;20049;-79
2023/12/18 02:28:45;;;;;;;24.48;7.57;;;;;;;7.34;100.00;102882.34;4847509;29;20055;-79
2023/12/18 02:31:13;;;;;;;20.48;8.43;;;;;;;7.34;100.00;102879.72;4850247;29;20064;-78
2023/12/18 02:33:41;;;;;;;24.35;7.78;;;;;;;7.34;100.00;102873.59;4850788;29;20053;-79
2023/12/18 02:36:09;;;;;;;20.40;6.95;;;;;;;7.34;100.00;102858.72;4881217;29;20055;-79
2023/12/18 02:38:36;;;;;;;22.33;8.20;;;;;;;7.35;100.00;102877.97;4824080;29;22165;-78
2023/12/18 02:41:04;;;;;;;17.90;7.50;;;;;;;7.35;100.00;102876.28;4873415;29;20045;-78
2023/12/18 02:43:31;;;;;;;21.52;7.78;;;;;;;7.35;100.00;102880.59;4848060;29;20052;-79
2023/12/18 02:45:59;;;;;;;23.83;8.32;;;;;;;7.34;100.00;102874.47;4856568;29;20057;-78
2023/12/18 02:48:26;;;;;;;22.88;7.30;;;;;;;7.35;100.00;102873.66;4843885;29;20052;-79
2023/12/18 02:50:54;;;;;;;22.58;7.82;;;;;;;7.35;100.00;102873.66;4855265;29;20048;-80
2023/12/18 02:53:21;;;;;;;16.73;6.95;;;;;;;7.35;100.00;102860.53;4844271;29;20064;-80
2023/12/18 02:55:48;;;;;;;22.55;7.22;;;;;;;7.35;100.00;102852.69;4824766;29;20100;-80
2023/12/18 02:58:16;;;;;;;23.02;6.90;;;;;;;7.35;100.00;102863.16;4838938;29;20052;-78
2023/12/18 03:00:43;;;;;;;16.00;6.65;;;;;;;7.34;100.00;102858.72;4841723;29;20041;-79
2023/12/18 03:03:11;;;;;;;23.70;7.20;;;;;;;7.36;100.00;102871.94;4852807;29;20053;-78
2023/12/18 03:05:38;;;;;;;20.58;6.38;;;;;;;7.36;100.00;102864.06;4852746;29;20049;-80
2023/12/18 03:08:06;;;;;;;22.40;6.72;;;;;;;7.35;100.00;102854.38;4858305;29;20049;-79
2023/12/18 03:10:34;;;;;;;18.63;6.45;;;;;;;7.36;100.00;102857.09;4804748;29;20490;-80
2023/12/18 03:13:01;;;;;;;23.17;6.53;;;;;;;7.36;100.00;102859.69;4854586;29;20057;-79
2023/12/18 03:15:29;;;;;;;18.45;6.63;;;;;;;7.36;100.00;102858.81;4862113;29;20056;-79
2023/12/18 03:17:57;;;;;;;20.67;7.07;;;;;;;7.35;100.00;102857.00;4853983;29;20056;-79
2023/12/18 03:20:26;;;;;;;19.88;6.70;;;;;;;7.36;100.00;102857.09;4855639;29;20072;-79
2023/12/18 03:22:53;;;;;;;19.35;7.32;;;;;;;7.36;100.00;102851.84;4878708;29;20041;-79
2023/12/18 03:25:21;;;;;;;16.23;6.40;;;;;;;7.36;100.00;102836.09;4825039;29;20491;-79
2023/12/18 03:27:49;;;;;;;18.02;7.03;;;;;;;7.36;100.00;102830.84;4845313;29;20794;-79
2023/12/18 03:30:16;;;;;;;18.92;6.50;;;;;;;7.36;100.00;102828.22;4862836;29;20410;-79
2023/12/18 03:32:45;;;;;;;18.40;6.18;;;;;;;7.36;100.00;102830.84;4835433;29;20447;-80
2023/12/18 03:35:13;;;;;;;19.45;6.15;;;;;;;7.36;100.00;102822.09;4855611;29;20052;-80
2023/12/18 03:37:41;;;;;;;21.02;7.78;;;;;;;7.37;100.00;102829.13;4867435;29;20059;-79
2023/12/18 03:40:09;;;;;;;20.52;6.22;;;;;;;7.37;100.00;102834.38;4864794;29;20414;-79
2023/12/18 03:42:38;;;;;;;22.38;6.72;;;;;;;7.37;100.00;102835.28;4823190;29;20404;-81
2023/12/18 03:45:06;;;;;;;25.63;6.05;;;;;;;7.38;100.00;102828.31;4860061;29;20422;-78
2023/12/18 03:47:34;;;;;;;21.17;6.90;;;;;;;7.38;100.00;102823.94;4840780;29;20541;-79
2023/12/18 03:50:01;;;;;;;18.02;5.55;;;;;;;7.38;100.00;102829.19;4855054;29;20060;-79
2023/12/18 03:52:29;;;;;;;18.02;5.60;;;;;;;7.38;100.00;102828.31;4870457;29;20083;-78
2023/12/18 03:54:56;;;;;;;15.57;5.15;;;;;;;7.39;100.00;102831.00;4873218;29;20439;-80
2023/12/18 03:57:24;;;;;;;21.25;5.78;;;;;;;7.40;100.00;102842.41;4805287;29;20061;-79
2023/12/18 03:59:51;;;;;;;17.10;5.85;;;;;;;7.39;100.00;102828.38;4855134;29;20063;-79
2023/12/18 04:02:19;;;;;;;17.48;6.15;;;;;;;7.40;100.00;102822.31;4844679;29;20049;-79
2023/12/18 04:04:47;;;;;;;16.20;6.07;;;;;;;7.40;100.00;102827.53;4870635;29;20045;-79
2023/12/18 04:07:15;;;;;;;24.40;6.40;;;;;;;7.40;100.00;102822.31;4871690;29;20049;-79
2023/12/18 04:09:42;;;;;;;17.25;5.70;;;;;;;7.41;100.00;102828.47;4856051;29;20084;-80
2023/12/18 04:12:10;;;;;;;17.65;5.13;;;;;;;7.41;100.00;102817.97;4855487;29;20057;-78
2023/12/18 04:14:38;;;;;;;22.77;5.40;;;;;;;7.42;100.00;102819.75;4807071;29;20069;-79
2023/12/18 04:17:05;;;;;;;18.40;5.53;;;;;;;7.41;100.00;102818.88;4848377;29;20068;-79
2023/12/18 04:19:33;;;;;;;20.90;6.53;;;;;;;7.43;100.00;102821.56;4869861;29;20044;-79
2023/12/18 04:22:00;;;;;;;25.95;6.63;;;;;;;7.42;100.00;102831.13;4864090;29;20048;-79
2023/12/18 04:24:28;;;;;;;23.17;6.00;;;;;;;7.42;100.00;102804.91;4870856;29;20045;-78
2023/12/18 04:26:56;;;;;;;21.50;5.53;;;;;;;7.44;100.00;102809.34;4822083;29;20053;-78
2023/12/18 04:29:25;;;;;;;19.70;5.90;;;;;;;7.44;100.00;102806.72;4835797;29;20037;-79
2023/12/18 04:31:53;;;;;;;22.00;6.15;;;;;;;7.43;100.00;102803.22;4880975;29;20053;-81
2023/12/18 04:34:22;;;;;;;23.65;6.13;;;;;;;7.44;100.00;102802.38;4845918;29;20064;-79
2023/12/18 04:36:50;;;;;;;16.15;5.68;;;;;;;7.45;100.00;102813.75;4855543;29;20056;-79
2023/12/18 04:39:17;;;;;;;16.73;5.28;;;;;;;7.44;100.00;102818.09;4870532;29;20518;-79
2023/12/18 04:41:45;;;;;;;27.45;6.30;;;;;;;7.45;100.00;102814.66;4844205;29;20064;-80
2023/12/18 04:44:12;;;;;;;27.42;6.55;;;;;;;7.47;100.00;102809.50;4817264;29;20057;-78
2023/12/18 04:46:40;;;;;;;17.58;5.35;;;;;;;7.48;100.00;102817.41;4855838;29;20052;-78
2023/12/18 04:49:09;;;;;;;15.32;5.70;;;;;;;7.49;100.00;102820.97;4851565;29;20049;-79
2023/12/18 04:51:36;;;;;;;19.88;5.35;;;;;;;7.51;100.00;102819.31;4857115;29;20049;-80
2023/12/18 04:54:04;;;;;;;17.25;5.30;;;;;;;7.53;100.00;102818.53;4859636;29;20053;-80
2023/12/18 04:56:31;;;;;;;16.38;5.93;;;;;;;7.53;100.00;102810.66;4872532;29;20055;-80
2023/12/18 04:58:59;;;;;;;22.73;7.82;;;;;;;7.53;100.00;102804.53;4808854;29;20062;-80
2023/12/18 05:01:26;;;;;;;21.35;7.47;;;;;;;7.50;100.00;102793.88;4840532;29;20061;-79
2023/12/18 05:03:54;;;;;;;26.48;8.27;;;;;;;7.48;100.00;102798.16;4846687;29;20045;-79
2023/12/18 05:06:23;;;;;;;19.80;8.90;;;;;;;7.46;100.00;102782.34;4854794;29;20053;-79
2023/12/18 05:08:51;;;;;;;22.02;8.90;;;;;;;7.43;100.00;102790.09;4848670;29;20503;-79
2023/12/18 05:11:23;;;;;;;17.75;8.25;;;;;;;7.41;100.00;102783.88;4863658;29;20772;-79
2023/12/18 05:13:51;;;;;;;21.70;8.80;;;;;;;7.38;100.00;102787.22;4852769;29;20037;-79
2023/12/18 05:16:19;;;;;;;19.00;9.27;;;;;;;7.37;100.00;102805.50;4824777;29;20407;-79
2023/12/18 05:18:47;;;;;;;26.73;9.52;;;;;;;7.37;100.00;102806.44;4855481;29;20869;-79
2023/12/18 05:21:15;;;;;;;21.05;9.75;;;;;;;7.35;100.00;102808.09;4832340;29;20049;-79
2023/12/18 05:23:42;;;;;;;23.67;8.23;;;;;;;7.34;100.00;102816.78;4846640;29;20073;-79
2023/12/18 05:26:09;;;;;;;25.55;8.43;;;;;;;7.34;100.00;102814.16;4848286;29;20064;-80
2023/12/18 05:28:37;;;;;;;21.80;8.32;;;;;;;7.36;100.00;102807.25;4857292;29;20056;-79
2023/12/18 05:31:08;;;;;;;30.13;8.00;;;;;;;7.38;100.00;102807.31;4809886;29;20057;-78
2023/12/18 05:33:36;;;;;;;25.15;6.97;;;;;;;7.39;100.00;102802.16;4857209;29;20498;-79
2023/12/18 05:36:04;;;;;;;19.45;7.78;;;;;;;7.42;100.00;102802.28;4859507;29;20045;-79
2023/12/18 05:38:32;;;;;;;14.32;6.40;;;;;;;7.45;100.00;102798.00;4853645;29;20057;-78
2023/12/18 05:40:59;;;;;;;24.15;7.55;;;;;;;7.47;100.00;102809.50;4842015;29;20072;-79
2023/12/18 05:43:26;;;;;;;21.52;7.45;;;;;;;7.48;100.00;102804.31;4854253;29;20053;-79
2023/12/18 05:45:54;;;;;;;20.80;7.88;;;;;;;7.50;100.00;102802.66;4808323;29;20064;-79
2023/12/18 05:48:21;;;;;;;20.98;7.72;;;;;;;7.51;100.00;102804.47;4855784;29;20060;-79
2023/12/18 05:50:49;;;;;;;20.98;7.63;;;;;;;7.52;100.00;102789.59;4845292;29;20048;-80
2023/12/18 05:53:16;;;;;;;23.30;7.45;;;;;;;7.53;100.00;102799.28;4836216;29;20052;-80
2023/12/18 05:55:44;;;;;;;18.92;6.25;;;;;;;7.53;100.00;102794.03;4842452;29;20058;-78
2023/12/18 05:58:11;;;;;;;22.52;6.97;;;;;;;7.54;100.00;102796.75;4843830;29;20061;-78
2023/12/18 06:00:39;;;;;;;23.50;7.18;;;;;;;7.55;100.00;102808.13;4804489;29;20053;-79
2023/12/18 06:03:06;;;;;;;19.02;7.10;;;;;;;7.56;100.00;102796.78;4875887;29;20056;-79
2023/12/18 06:05:34;;;;;;;19.50;7.28;;;;;;;7.56;100.00;102789.84;4842883;29;20069;-79
2023/12/18 06:08:01;;;;;;;18.35;7.22;;;;;;;7.55;100.00;102787.13;4858819;29;20915;-78
2023/12/18 06:10:29;;;;;;;19.27;7.32;;;;;;;7.57;100.00;102785.47;4836376;29;20506;-78
2023/12/18 06:12:56;;;;;;;17.83;7.07;;;;;;;7.58;100.00;102789.88;4854361;29;20098;-79
2023/12/18 06:15:23;;;;;;;18.95;6.72;;;;;;;7.57;100.00;102796.88;4848576;29;20692;-78
2023/12/18 06:17:51;;;;;;;23.73;8.75;;;;;;;7.58;100.00;102803.94;4815632;29;20045;-78
2023/12/18 06:20:19;;;;;;;29.40;7.55;;;;;;;7.59;100.00;102804.81;4855644;29;20514;-79
2023/12/18 06:22:46;;;;;;;21.23;6.65;;;;;;;7.60;100.00;102820.63;4862102;29;20055;-79
2023/12/18 06:25:14;;;;;;;22.13;7.32;;;;;;;7.61;100.00;102811.91;4871455;29;20048;-79
2023/12/18 06:27:43;;;;;;;21.75;7.10;;;;;;;7.64;100.00;102820.75;4843247;29;20049;-79
2023/12/18 06:30:12;;;;;;;24.15;7.70;;;;;;;7.65;100.00;102818.22;4851721;29;20062;-78
2023/12/18 06:32:39;;;;;;;27.98;7.45;;;;;;;7.67;100.00;102813.94;4807322;29;20049;-80
2023/12/18 06:35:07;;;;;;;22.75;7.43;;;;;;;7.67;100.00;102815.66;4857100;29;20067;-79
2023/12/18 06:37:35;;;;;;;16.38;6.25;;;;;;;7.66;100.00;102814.78;4857653;29;20053;-78
2023/12/18 06:40:03;;;;;;;26.90;8.70;;;;;;;7.66;100.00;102809.53;4857765;29;20045;-78
2023/12/18 06:42:31;;;;;;;18.65;7.15;;;;;;;7.66;100.00;102804.28;4853212;29;20056;-80
2023/12/18 06:44:59;;;;;;;26.42;8.02;;;;;;;7.67;100.00;102802.53;4869087;29;20498;-80
2023/12/18 06:47:28;;;;;;;24.02;8.13;;;;;;;7.66;100.00;102793.78;4798360;29;20063;-79
2023/12/18 06:49:56;;;;;;;19.73;8.10;;;;;;;7.66;100.00;102795.53;4881882;29;20040;-79
2023/12/18 06:52:23;;;;;;;22.80;8.70;;;;;;;7.64;100.00;102797.13;4858640;29;20061;-78
2023/12/18 06:54:51;;;;;;;22.77;8.38;;;;;;;7.63;100.00;102800.63;4868958;29;20632;-79
2023/12/18 06:57:18;;;;;;;20.77;8.55;;;;;;;7.61;100.00;102803.16;4856036;29;20429;-80
2023/12/18 06:59:46;;;;;;;23.92;8.75;;;;;;;7.61;100.00;102805.78;4865036;29;20037;-79
2023/12/18 07:02:13;;;;;;;28.80;9.48;;;;;;;7.59;100.00;102813.56;4850911;29;20057;-78
2023/12/18 07:04:41;;;;;;;20.80;9.18;;;;;;;7.59;100.00;102820.56;4844040;29;20051;-78
2023/12/18 07:07:08;;;;;;;24.88;9.68;;;;;;;7.58;100.00;102813.50;4850010;29;20053;-78
2023/12/18 07:09:36;;;;;;;26.85;9.55;;;;;;;7.58;100.00;102827.53;4856126;29;20045;-78
2023/12/18 07:12:04;;;;;;;23.85;9.85;;;;;;;7.58;100.00;102821.38;4843856;29;20507;-79
2023/12/18 07:14:31;;;;;;;33.13;11.13;;;;;;;7.57;100.00;102825.72;4832257;29;20415;-78
2023/12/18 07:16:58;;;;;;;24.08;9.73;;;;;;;7.58;100.00;102835.41;4855815;29;20060;-78
2023/12/18 07:19:26;;;;;;;30.67;11.00;;;;;;;7.57;100.00;102836.22;4813375;29;20041;-78
2023/12/18 07:21:54;;;;;;;22.38;9.77;;;;;;;7.57;100.00;102832.72;4855790;29;20056;-78
2023/12/18 07:24:21;;;;;;;26.10;10.20;;;;;;;7.59;100.00;102839.81;4845436;29;20068;-78
2023/12/18 07:26:49;;;;;;;28.65;10.73;;;;;;;7.58;100.00;102832.78;4855953;29;20056;-78
2023/12/18 07:29:16;;;;;;;22.80;9.80;;;;;;;7.60;100.00;102830.25;4847438;29;20053;-78
2023/12/18 07:31:44;;;;;;;22.42;10.32;;;;;;;7.59;100.00;102831.94;4852669;29;20057;-78
2023/12/18 07:34:12;;;;;;;25.70;10.15;;;;;;;7.60;100.00;102832.88;4816491;29;20053;-78
2023/12/18 07:36:40;;;;;;;26.70;10.40;;;;;;;7.59;100.00;102838.91;4831937;29;20056;-79
2023/12/18 07:39:08;;;;;;;29.02;11.23;;;;;;;7.59;100.00;102823.19;4865635;29;20057;-79
2023/12/18 07:41:36;;;;;;;24.08;11.35;;;;;;;7.58;100.00;102826.63;4856376;29;20041;-78
2023/12/18 07:44:03;;;;;;;35.85;10.70;;;;;;;7.58;100.00;102814.41;4849918;29;20063;-79
2023/12/18 07:46:31;;;;;;;27.65;10.73;;;;;;;7.58;100.00;102819.66;4850654;29;20048;-78
2023/12/18 07:48:58;;;;;;;33.10;10.68;;;;;;;7.58;100.00;102816.13;4829879;29;20052;-78
2023/12/18 07:51:27;;;;;;;26.65;10.45;;;;;;;7.58;100.00;102818.75;4868550;29;20508;-78
2023/12/18 07:53:55;;;;;;;32.92;12.65;;;;;;;7.58;100.00;102821.38;4834869;29;20060;-79
2023/12/18 07:56:22;;;;;;;22.88;10.48;;;;;;;7.58;100.00;102824.00;4821921;29;20064;-78
2023/12/18 07:58:50;;;;;;;34.60;11.43;;;;;;;7.58;100.00;102816.13;4843040;29;20053;-77
2023/12/18 08:01:18;;;;;;;27.48;12.07;;;;;;;7.58;100.00;102819.66;4859051;29;20050;-79
2023/12/18 08:03:47;;;;;;;30.48;10.98;;;;;;;7.57;100.00;102809.09;4827983;29;20411;-78
2023/12/18 08:06:15;;;;;;;28.48;10.85;;;;;;;7.57;100.00;102812.59;4855341;29;20068;-79
2023/12/18 08:08:42;;;;;;;32.35;11.93;;;;;;;7.58;100.00;102822.28;4868841;29;20410;-77
2023/12/18 08:11:10;;;;;;;25.65;11.13;;;;;;;7.58;100.00;102810.88;4852816;29;20049;-78
2023/12/18 08:13:41;;;;;;;29.98;11.38;;;;;;;7.59;100.00;102807.44;4836641;29;20071;-77
2023/12/18 08:16:09;;;;;;;23.65;11.00;;;;;;;7.60;100.00;102819.75;4860709;29;20395;-78
2023/12/18 08:18:36;;;;;;;30.02;11.70;;;;;;;7.60;100.00;102801.38;4855052;29;20053;-78
2023/12/18 08:21:04;;;;;;;32.83;11.13;;;;;;;7.60;100.00;102812.75;4835196;29;20053;-78
2023/12/18 08:23:32;;;;;;;27.40;10.88;;;;;;;7.60;100.00;102802.28;4845406;29;20052;-77
2023/12/18 08:25:59;;;;;;;31.63;11.68;;;;;;;7.60;100.00;102811.88;4856978;29;20053;-78
2023/12/18 08:28:26;;;;;;;27.10;10.52;;;;;;;7.62;100.00;102802.34;4848812;29;20064;-78
2023/12/18 08:30:54;;;;;;;28.38;12.00;;;;;;;7.63;100.00;102816.34;4842092;29;20498;-78
2023/12/18 08:33:23;;;;;;;21.42;9.88;;;;;;;7.63;100.00;102800.63;4858685;29;20526;-78
2023/12/18 08:35:50;;;;;;;21.30;9.45;;;;;;;7.62;100.00;102802.34;4834073;29;20399;-78
2023/12/18 08:38:18;;;;;;;29.02;11.18;;;;;;;7.64;100.00;102803.31;4873679;29;20093;-78
2023/12/18 08:40:45;;;;;;;36.08;12.07;;;;;;;7.66;100.00;102814.78;4846552;29;20175;-78
2023/12/18 08:43:13;;;;;;;28.77;11.15;;;;;;;7.65;100.00;102812.97;4857186;29;20053;-78
2023/12/18 08:45:40;;;;;;;37.42;12.27;;;;;;;7.67;100.00;102810.41;4835262;29;20052;-78
2023/12/18 08:48:08;;;;;;;30.02;11.77;;;;;;;7.67;100.00;102811.31;4846918;29;20045;-78
2023/12/18 08:50:35;;;;;;;31.70;11.88;;;;;;;7.69;100.00;102812.28;4873462;29;20048;-78
2023/12/18 08:53:03;;;;;;;32.63;11.77;;;;;;;7.70;100.00;102810.56;4820965;29;20056;-78
2023/12/18 08:55:31;;;;;;;25.70;10.98;;;;;;;7.70;100.00;102805.31;4870373;29;20395;-80
2023/12/18 08:58:00;;;;;;;32.65;11.45;;;;;;;7.71;100.00;102796.59;4873332;29;20065;-79
2023/12/18 09:00:27;;;;;;;33.72;11.77;;;;;;;7.72;100.00;102787.91;4862146;29;20049;-78
2023/12/18 09:02:55;;;;;;;29.17;11.57;;;;;;;7.74;100.00;102794.13;4836260;29;20438;-78
2023/12/18 09:05:23;;;;;;;37.67;11.88;;;;;;;7.73;100.00;102793.25;4856855;29;20057;-77
2023/12/18 09:07:50;;;;;;;25.98;11.48;;;;;;;7.74;100.00;102794.13;4812080;29;20056;-78
2023/12/18 09:10:22;;;;;;;27.60;12.02;;;;;;;7.76;100.00;102795.09;4858376;29;20057;-78
2023/12/18 09:12:52;;;;;;;34.17;12.63;;;;;;;7.76;100.00;102792.47;4869612;29;20045;-78
2023/12/18 09:15:21;;;;;;;30.73;11.18;;;;;;;7.78;100.00;102777.69;4844605;29;20048;-78
2023/12/18 09:17:49;;;;;;;31.73;11.57;;;;;;;7.79;100.00;102774.25;4847575;29;20777;-79
2023/12/18 09:20:17;;;;;;;34.72;12.20;;;;;;;7.80;100.00;102787.41;4852493;29;20080;-80
2023/12/18 09:22:50;;;;;;;29.10;11.35;;;;;;;7.80;100.00;102791.78;4831588;29;20052;-77
2023/12/18 09:25:17;;;;;;;32.78;11.40;;;;;;;7.79;100.00;102780.41;4834487;29;20053;-78
2023/12/18 09:27:44;;;;;;;33.50;12.43;;;;;;;7.80;100.00;102791.78;4852995;29;20462;-78
2023/12/18 09:30:13;;;;;;;31.33;13.93;;;;;;;7.80;100.00;102792.66;4873269;29;20540;-79
2023/12/18 09:32:41;;;;;;;30.27;13.13;;;;;;;7.81;100.00;102788.34;4809078;29;20148;-78
2023/12/18 09:35:10;;;;;;;31.35;12.77;;;;;;;7.81;100.00;102794.47;4873367;29;20064;-79
2023/12/18 09:37:37;;;;;;;27.27;12.98;;;;;;;7.84;100.00;102787.56;4844689;29;20064;-78
2023/12/18 09:40:07;;;;;;;33.63;13.75;;;;;;;7.87;100.00;102793.88;4868363;29;20384;-78
2023/12/18 09:42:34;;;;;;;33.92;13.70;;;;;;;7.88;100.00;102789.50;4854572;29;20057;-77
2023/12/18 09:45:03;;;;;;;29.38;12.68;;;;;;;7.88;100.00;102800.00;4855671;29;20900;-79
2023/12/18 09:47:30;;;;;;;34.60;13.82;;;;;;;7.89;100.00;102789.56;4832750;29;20053;-78
2023/12/18 09:49:58;;;;;;;34.92;13.70;;;;;;;7.90;100.00;102785.22;4857169;29;20068;-78
2023/12/18 09:52:30;;;;;;;31.27;14.32;;;;;;;7.92;100.00;102796.69;4863850;29;20048;-79
2023/12/18 09:55:01;;;;;;;28.33;13.27;;;;;;;7.91;100.00;102781.78;4827483;29;20063;-79
2023/12/18 09:57:31;;;;;;;30.95;13.32;;;;;;;7.92;100.00;102786.19;4874270;29;20064;-77
2023/12/18 09:59:59;;;;;;;44.47;15.55;;;;;;;7.92;100.00;102776.59;4855842;29;20055;-78
2023/12/18 10:02:27;;;;;;;25.77;12.98;;;;;;;7.93;100.00;102772.25;4860950;29;20053;-79
2023/12/18 10:04:54;;;;;;;30.27;14.10;;;;;;;7.93;100.00;102772.25;4834698;29;20415;-79
2023/12/18 10:07:22;;;;;;;32.38;14.63;;;;;;;7.94;100.00;102758.28;4855310;29;20522;-78
2023/12/18 10:09:49;;;;;;;34.83;14.45;;;;;;;7.94;100.00;102756.56;4798223;29;20526;-78
2023/12/18 10:12:17;;;;;;;32.15;14.15;;;;;;;7.95;100.00;102747.84;4855760;29;20415;-80
2023/12/18 10:14:45;;;;;;;35.90;14.77;;;;;;;7.95;100.00;102754.84;4853160;29;20852;-79
2023/12/18 10:17:12;;;;;;;22.88;13.75;;;;;;;7.94;100.00;102743.44;4845890;29;20061;-78
2023/12/18 10:19:43;;;;;;;30.73;14.15;;;;;;;7.93;100.00;102749.50;4834033;29;20052;-78
2023/12/18 10:22:10;;;;;;;31.10;13.10;;;;;;;7.93;100.00;102741.63;4878545;29;20060;-78
2023/12/18 10:24:41;;;;;;;23.40;12.75;;;;;;;7.95;100.00;102736.44;4825056;29;20045;-78
2023/12/18 10:27:10;;;;;;;32.05;14.88;;;;;;;7.94;100.00;102743.44;4872421;29;20068;-79
2023/12/18 10:29:38;;;;;;;35.88;14.82;;;;;;;7.94;100.00;102734.63;4854033;29;20065;-78
2023/12/18 10:32:07;;;;;;;33.50;15.75;;;;;;;7.95;100.00;102737.34;4844828;29;20053;-78
2023/12/18 10:34:36;;;;;;;34.33;15.52;;;;;;;7.93;100.00;102725.00;4836488;29;20052;-78
2023/12/18 10:37:04;;;;;;;33.67;15.57;;;;;;;7.93;100.00;102728.50;4848140;29;20052;-78
2023/12/18 10:39:40;;;;;;;27.63;15.48;;;;;;;7.92;100.00;102731.06;4853989;29;20057;-78
2023/12/18 10:42:24;;;;;;;33.85;15.80;;;;;;;7.91;100.00;102730.16;4829221;29;20049;-78
2023/12/18 10:44:52;;;;;;;29.48;16.77;;;;;;;7.89;100.00;102728.31;4847450;29;20577;-77
2023/12/18 10:47:20;;;;;;;31.60;16.08;;;;;;;7.89;100.00;102712.56;4855354;29;20131;-77
2023/12/18 10:49:50;;;;;;;38.75;17.65;;;;;;;7.89;100.00;102717.81;4820809;29;20061;-78
2023/12/18 10:52:19;;;;;;;40.83;17.73;;;;;;;7.87;100.00;102717.75;4856115;29;20065;-78
2023/12/18 10:54:47;;;;;;;27.23;16.13;;;;;;;7.89;100.00;102720.44;4871360;29;20053;-79
2023/12/18 10:57:19;;;;;;;;;;;;;;;7.87;100.00;102712.50;4815517;29;20064;-78
2023/12/18 10:59:49;;;;;;;33.72;16.52;;;;;;;7.87;100.00;102708.97;4864533;29;19935;-78
2023/12/18 11:02:17;;;;;;;35.15;17.73;;;;;;;7.88;100.00;102702.88;4854987;29;20274;-78
2023/12/18 11:04:46;;;;;;;42.10;17.65;;;;;;;7.87;100.00;102706.34;4837399;29;20550;-79
2023/12/18 11:07:16;;;;;;;33.72;17.55;;;;;;;7.88;100.00;102705.50;4837868;29;20052;-78
2023/12/18 11:09:44;;;;;;;30.48;14.50;;;;;;;7.86;100.00;102705.44;4869657;29;20074;-79
2023/12/18 11:12:15;;;;;;;46.63;18.98;;;;;;;7.89;100.00;102717.81;4854222;29;20049;-79
2023/12/18 11:15:05;;;;;;;38.83;18.15;;;;;;;7.87;100.00;102708.97;4825495;29;20703;-79
2023/12/18 11:17:58;;;;;;;40.03;18.73;;;;;;;7.87;100.00;102703.72;4883188;29;20520;-79